createdAt,value
2022-11-22T00:01:30.992Z,44.20
2022-11-22T00:04:20.135Z,37.37
2022-11-22T00:07:09.534Z,41.23
2022-11-22T00:09:58.555Z,44.03
2022-11-22T00:12:47.613Z,42.17
2022-11-22T00:15:37.243Z,35.27
2022-11-22T00:18:27.624Z,38.77
2022-11-22T00:21:17.079Z,36.97
2022-11-22T00:24:07.163Z,36.90
2022-11-22T00:26:56.089Z,35.10
2022-11-22T00:29:45.581Z,37.57
2022-11-22T00:32:34.813Z,35.40
2022-11-22T00:35:25.615Z,39.07
2022-11-22T00:38:14.686Z,35.37
2022-11-22T00:41:04.070Z,38.37
2022-11-22T00:43:53.209Z,31.27
2022-11-22T00:46:42.571Z,31.40
2022-11-22T00:49:31.393Z,38.50
2022-11-22T00:52:22.838Z,35.57
2022-11-22T00:55:11.965Z,37.27
2022-11-22T00:58:01.555Z,37.67
2022-11-22T01:00:56.304Z,36.70
2022-11-22T01:03:46.230Z,39.33
2022-11-22T01:06:35.404Z,31.80
2022-11-22T01:09:26.679Z,33.50
2022-11-22T01:12:15.621Z,32.50
2022-11-22T01:15:05.223Z,32.47
2022-11-22T01:17:54.158Z,33.70
2022-11-22T01:20:42.717Z,34.07
2022-11-22T01:23:31.824Z,31.77
2022-11-22T01:26:22.070Z,30.43
2022-11-22T01:29:11.360Z,29.67
2022-11-22T01:32:00.545Z,31.57
2022-11-22T01:34:49.635Z,32.03
2022-11-22T01:37:38.796Z,28.77
2022-11-22T01:40:27.708Z,29.80
2022-11-22T01:43:20.865Z,29.73
2022-11-22T01:46:16.579Z,28.50
2022-11-22T01:49:08.612Z,30.47
2022-11-22T01:52:02.422Z,27.60
2022-11-22T01:54:57.262Z,31.00
2022-11-22T01:57:48.109Z,30.97
2022-11-22T02:00:40.458Z,29.47
2022-11-22T02:03:30.393Z,29.70
2022-11-22T02:06:20.726Z,26.33
2022-11-22T02:09:13.494Z,30.63
2022-11-22T02:12:05.773Z,28.30
2022-11-22T02:14:56.260Z,26.50
2022-11-22T02:17:47.103Z,29.30
2022-11-22T02:20:36.239Z,24.93
2022-11-22T02:23:32.792Z,26.27
2022-11-22T02:26:27.443Z,25.30
2022-11-22T02:29:17.319Z,24.90
2022-11-22T02:32:06.654Z,26.30
2022-11-22T02:34:55.640Z,27.23
2022-11-22T02:37:44.715Z,23.93
2022-11-22T02:40:36.536Z,26.83
2022-11-22T02:43:30.717Z,24.53
2022-11-22T02:46:22.954Z,24.27
2022-11-22T02:49:12.103Z,26.60
2022-11-22T02:52:01.232Z,25.53
2022-11-22T02:54:50.242Z,24.77
2022-11-22T02:57:38.930Z,22.07
2022-11-22T03:00:29.864Z,26.40
2022-11-22T03:03:19.197Z,24.33
2022-11-22T03:06:08.141Z,24.23
2022-11-22T03:08:57.387Z,21.90
2022-11-22T03:11:47.488Z,21.07
2022-11-22T03:14:36.980Z,22.80
2022-11-22T03:17:27.850Z,23.37
2022-11-22T03:20:17.194Z,20.67
2022-11-22T03:23:06.375Z,22.00
2022-11-22T03:25:55.416Z,21.60
2022-11-22T03:28:44.056Z,22.13
2022-11-22T03:31:33.636Z,21.73
2022-11-22T03:34:24.253Z,26.90
2022-11-22T03:37:13.373Z,22.57
2022-11-22T03:40:02.245Z,23.80
2022-11-22T03:42:51.316Z,22.40
2022-11-22T03:45:45.647Z,19.70
2022-11-22T03:48:35.725Z,21.53
2022-11-22T03:51:26.411Z,24.30
2022-11-22T03:54:15.938Z,25.23
2022-11-22T03:57:05.018Z,23.73
2022-11-22T03:59:54.521Z,24.83
2022-11-22T04:02:43.965Z,23.77
2022-11-22T04:05:33.325Z,29.07
2022-11-22T04:08:24.176Z,26.00
2022-11-22T04:11:13.542Z,23.90
2022-11-22T07:01:25.679Z,10.93
2022-11-22T07:04:15.683Z,10.40
2022-11-22T07:07:04.767Z,8.90
2022-11-22T07:09:56.586Z,7.67
2022-11-22T07:12:46.246Z,8.33
2022-11-22T07:15:35.864Z,8.00
2022-11-22T07:18:27.537Z,5.27
2022-11-22T07:21:18.244Z,5.87
2022-11-22T07:24:09.010Z,4.27
2022-11-22T07:26:58.129Z,5.03
2022-11-22T07:29:47.047Z,4.50
2022-11-22T07:32:36.743Z,4.53
2022-11-22T07:35:27.492Z,5.73
2022-11-22T07:38:16.528Z,5.57
2022-11-22T07:41:05.930Z,4.80
2022-11-22T07:43:55.827Z,6.20
2022-11-22T07:46:44.629Z,4.50
2022-11-22T07:49:33.521Z,4.03
2022-11-22T07:52:24.302Z,3.23
2022-11-22T07:55:14.918Z,3.27
2022-11-22T07:58:03.912Z,3.07
2022-11-22T08:00:52.791Z,3.93
2022-11-22T08:03:42.274Z,2.77
2022-11-22T08:06:31.488Z,4.00
2022-11-22T08:09:22.096Z,3.80
2022-11-22T08:12:11.233Z,4.33
2022-11-22T08:15:00.798Z,4.83
2022-11-22T08:17:50.002Z,3.90
2022-11-22T08:20:39.398Z,5.53
2022-11-22T08:23:28.876Z,6.63
2022-11-22T08:26:21.202Z,4.40
2022-11-22T08:29:14.360Z,4.60
2022-11-22T08:32:03.702Z,5.70
2022-11-22T08:34:52.794Z,2.93
2022-11-22T08:37:42.094Z,5.77
2022-11-22T08:40:31.295Z,2.70
2022-11-22T08:43:22.097Z,3.70
2022-11-22T08:46:11.264Z,2.70
2022-11-22T08:49:00.065Z,4.90
2022-11-22T08:51:49.538Z,2.50
2022-11-22T08:54:39.996Z,3.50
2022-11-22T08:57:29.376Z,3.97
2022-11-22T09:00:20.225Z,4.37
2022-11-22T09:03:08.978Z,3.77
2022-11-22T09:12:21.325Z,4.23
2022-11-22T09:15:11.400Z,4.03
2022-11-22T09:18:04.711Z,4.33
2022-11-22T09:20:59.490Z,2.50
2022-11-22T09:23:50.160Z,2.97
2022-11-22T09:26:38.847Z,2.57
2022-11-22T09:29:28.231Z,2.17
2022-11-22T09:32:17.474Z,0.90
2022-11-22T09:35:08.307Z,1.57
2022-11-22T09:37:58.266Z,2.30
2022-11-22T09:40:48.009Z,2.13
2022-11-22T09:43:45.716Z,2.80
2022-11-22T09:46:44.983Z,1.73
2022-11-22T09:49:48.429Z,3.53
2022-11-22T09:52:44.584Z,1.93
2022-11-22T09:55:38.321Z,1.27
2022-11-22T09:58:33.438Z,4.60
2022-11-22T10:01:27.857Z,6.40
2022-11-22T10:04:21.502Z,3.20
2022-11-22T10:07:16.002Z,2.50
2022-11-22T10:10:11.433Z,1.40
2022-11-22T10:13:07.986Z,1.83
2022-11-22T10:16:01.809Z,2.60
2022-11-22T10:18:56.002Z,1.60
2022-11-22T10:21:47.506Z,1.07
2022-11-22T10:24:36.563Z,1.63
2022-11-22T10:27:31.963Z,1.70
2022-11-22T10:30:22.612Z,1.57
2022-11-22T10:33:17.425Z,2.83
2022-11-22T10:36:25.689Z,4.13
2022-11-22T10:39:32.910Z,1.70
2022-11-22T10:42:52.562Z,3.83
2022-11-22T10:45:45.756Z,1.63
2022-11-22T10:48:42.553Z,2.10
2022-11-22T10:51:40.705Z,2.80
2022-11-22T10:54:39.301Z,6.53
2022-11-22T10:57:36.962Z,2.93
2022-11-22T11:00:27.319Z,1.90
2022-11-22T11:03:27.388Z,6.23
2022-11-22T11:06:33.404Z,3.10
2022-11-22T11:12:49.748Z,1.57
2022-11-22T11:15:43.100Z,2.43
2022-11-22T11:18:38.121Z,2.27
2022-11-22T11:21:29.036Z,2.40
2022-11-22T11:24:20.146Z,2.07
2022-11-22T11:27:11.125Z,0.90
2022-11-22T11:30:03.803Z,1.67
2022-11-22T11:32:54.447Z,1.27
2022-11-22T11:35:44.206Z,1.60
2022-11-22T11:38:36.240Z,1.30
2022-11-22T11:41:29.169Z,1.23
2022-11-22T11:44:29.662Z,3.77
2022-11-22T11:47:33.729Z,2.30
2022-11-22T11:50:25.002Z,1.17
2022-11-22T11:53:23.159Z,1.23
2022-11-22T11:56:46.285Z,2.60
2022-11-22T11:59:45.857Z,1.13
2022-11-22T12:02:41.523Z,1.50
2022-11-22T12:05:31.969Z,1.47
2022-11-22T12:08:30.813Z,1.40
2022-11-22T12:11:24.551Z,1.30
2022-11-22T12:14:37.588Z,1.83
2022-11-22T12:17:29.461Z,1.03
2022-11-22T12:20:24.448Z,2.10
2022-11-22T12:23:23.293Z,1.13
2022-11-22T12:26:13.758Z,1.47
2022-11-22T12:29:03.003Z,1.50
2022-11-22T12:31:54.609Z,1.13
2022-11-22T12:34:51.723Z,2.03
2022-11-22T12:37:47.719Z,1.67
2022-11-22T12:40:43.472Z,5.83
2022-11-22T12:43:38.447Z,1.10
2022-11-22T12:46:31.534Z,1.60
2022-11-22T12:49:36.691Z,1.33
2022-11-22T12:52:31.014Z,2.60
2022-11-22T12:55:24.499Z,2.20
2022-11-22T12:58:22.496Z,1.60
2022-11-22T13:01:22.261Z,1.77
2022-11-22T13:04:19.915Z,1.27
2022-11-22T13:07:17.467Z,1.47
2022-11-22T13:10:14.507Z,2.00
2022-11-22T13:13:07.487Z,1.63
2022-11-22T13:15:59.454Z,1.70
2022-11-22T13:18:52.721Z,1.50
2022-11-22T13:22:02.856Z,3.03
2022-11-22T13:25:19.334Z,2.53
2022-11-22T13:28:16.447Z,3.20
2022-11-22T13:31:08.647Z,1.90
2022-11-22T13:33:59.721Z,2.53
2022-11-22T13:36:50.816Z,2.27
2022-11-22T13:39:45.554Z,3.00
2022-11-22T13:42:35.109Z,4.53
2022-11-22T13:45:26.738Z,2.73
2022-11-22T13:48:15.502Z,3.07
2022-11-22T13:51:05.097Z,2.33
2022-11-22T13:54:32.588Z,2.50
2022-11-22T13:57:31.954Z,2.60
2022-11-22T14:00:49.480Z,2.63
2022-11-22T14:03:41.923Z,2.77
2022-11-22T14:06:32.389Z,2.33
2022-11-22T14:09:34.037Z,2.20
2022-11-22T14:13:00.241Z,4.17
2022-11-22T14:16:04.073Z,2.70
2022-11-22T14:19:02.109Z,2.83
2022-11-22T14:22:25.438Z,2.40
2022-11-22T14:25:32.343Z,3.90
2022-11-22T14:28:40.903Z,3.40
2022-11-22T14:31:33.872Z,5.40
2022-11-22T14:34:26.092Z,3.13
2022-11-22T14:37:43.839Z,5.90
2022-11-22T14:40:43.375Z,2.37
2022-11-22T14:43:37.502Z,1.97
2022-11-22T14:46:52.206Z,4.37
2022-11-22T14:49:45.914Z,1.80
2022-11-22T14:52:36.676Z,3.37
2022-11-22T14:55:28.493Z,3.70
2022-11-22T14:58:24.000Z,3.40
2022-11-22T15:01:43.508Z,2.47
2022-11-22T15:09:10.289Z,3.33
2022-11-22T15:09:13.833Z,3.87
2022-11-22T15:12:00.988Z,3.10
2022-11-22T16:00:02.013Z,3.03
2022-11-22T16:02:53.803Z,2.40
2022-11-22T16:06:09.036Z,2.33
2022-11-22T16:08:55.212Z,1.57
2022-11-22T16:11:44.228Z,3.67
2022-11-22T16:14:47.299Z,2.30
2022-11-22T16:17:38.419Z,1.50
2022-11-22T16:20:35.020Z,1.37
2022-11-22T16:23:27.957Z,3.00
2022-11-22T16:26:24.891Z,2.63
2022-11-22T16:29:29.636Z,2.40
2022-11-22T16:32:19.838Z,1.40
2022-11-22T16:35:28.446Z,1.53
2022-11-22T16:38:18.518Z,2.23
2022-11-22T16:41:13.972Z,2.57
2022-11-22T16:44:07.957Z,2.13
2022-11-22T16:46:59.002Z,3.77
2022-11-22T16:49:48.475Z,2.40
2022-11-22T16:52:37.715Z,1.67
2022-11-22T16:55:27.579Z,1.80
2022-11-22T16:58:18.908Z,5.03
2022-11-22T17:01:11.622Z,2.40
2022-11-22T17:04:03.062Z,3.17
2022-11-22T17:06:52.713Z,2.97
2022-11-22T17:09:41.547Z,1.97
2022-11-22T17:12:33.859Z,3.23
2022-11-22T17:15:26.548Z,3.67
2022-11-22T17:18:17.199Z,1.70
2022-11-22T17:21:07.262Z,3.53
2022-11-22T17:23:58.373Z,4.33
2022-11-22T17:26:47.119Z,1.90
2022-11-22T17:29:50.447Z,1.80
2022-11-22T17:32:40.682Z,2.63
2022-11-22T17:35:35.778Z,3.00
2022-11-22T17:38:25.977Z,2.50
2022-11-22T17:41:15.803Z,2.63
2022-11-22T17:44:06.090Z,1.90
2022-11-22T17:46:55.403Z,2.13
2022-11-22T17:49:44.555Z,3.47
2022-11-22T17:52:35.226Z,2.50
2022-11-22T17:55:32.741Z,2.53
2022-11-22T17:58:32.317Z,2.17
2022-11-22T18:01:23.047Z,1.87
2022-11-22T18:04:11.795Z,1.40
2022-11-22T18:07:00.875Z,1.50
2022-11-22T18:09:52.097Z,1.77
2022-11-22T18:12:42.571Z,2.13
2022-11-22T18:15:41.488Z,2.77
2022-11-22T18:18:57.878Z,1.47
2022-11-22T18:21:39.763Z,2.13
2022-11-22T18:24:28.885Z,3.43
2022-11-22T18:27:19.686Z,3.77
2022-11-22T18:30:11.205Z,2.87
2022-11-22T18:33:00.341Z,3.20
2022-11-22T18:35:56.341Z,3.87
2022-11-22T18:38:46.284Z,3.33
2022-11-22T18:41:35.253Z,4.03
2022-11-22T18:44:26.040Z,3.73
2022-11-22T18:47:15.903Z,2.93
2022-11-22T18:50:08.305Z,2.50
2022-11-22T18:53:00.332Z,2.97
2022-11-22T18:55:49.916Z,2.20
2022-11-22T18:58:39.628Z,3.33
2022-11-22T19:01:30.127Z,2.63
2022-11-22T19:04:19.020Z,2.87
2022-11-22T19:07:08.548Z,2.37
2022-11-22T19:09:59.016Z,2.80
2022-11-22T19:12:48.479Z,2.63
2022-11-22T19:15:37.419Z,1.60
2022-11-22T19:18:32.768Z,2.70
2022-11-22T19:21:26.231Z,5.93
2022-11-22T19:24:15.831Z,4.57
2022-11-22T19:27:04.977Z,3.30
2022-11-22T19:29:54.178Z,4.17
2022-11-22T19:32:43.684Z,2.83
2022-11-22T19:35:36.910Z,2.90
2022-11-22T19:38:26.925Z,2.80
2022-11-22T19:41:18.679Z,3.23
2022-11-22T19:44:08.328Z,3.60
2022-11-22T19:46:57.300Z,3.57
2022-11-22T19:49:46.544Z,2.30
2022-11-22T19:52:36.928Z,1.70
2022-11-22T19:55:26.074Z,3.43
2022-11-22T19:58:15.107Z,1.57
2022-11-22T20:01:08.718Z,2.57
2022-11-22T20:03:59.139Z,1.77
2022-11-22T20:06:50.372Z,2.17
2022-11-22T20:09:41.584Z,1.27
2022-11-22T20:12:30.463Z,1.13
2022-11-22T20:15:19.875Z,2.37
2022-11-22T20:18:09.513Z,2.27
2022-11-22T20:21:02.221Z,1.30
2022-11-22T20:23:52.347Z,1.93
2022-11-22T20:26:42.745Z,1.73
2022-11-22T20:29:32.078Z,1.27
2022-11-22T20:32:21.483Z,2.63
2022-11-22T20:35:11.637Z,2.30
2022-11-22T20:38:02.137Z,1.53
2022-11-22T20:40:57.655Z,2.07
2022-11-22T20:43:50.001Z,2.63
2022-11-22T20:46:39.086Z,1.73
2022-11-22T20:49:29.527Z,2.03
2022-11-22T20:52:18.670Z,2.40
2022-11-22T20:55:08.715Z,2.70
2022-11-22T20:57:58.874Z,2.30
2022-11-22T21:00:49.270Z,5.00
2022-11-22T21:03:38.081Z,3.83
2022-11-22T21:06:28.037Z,2.83
2022-11-22T21:09:17.288Z,2.27
2022-11-22T21:12:06.822Z,3.23
2022-11-22T21:14:55.933Z,2.57
2022-11-22T21:18:17.125Z,3.37
2022-11-22T21:20:55.656Z,2.00
2022-11-22T21:23:45.206Z,1.63
2022-11-22T21:26:35.251Z,2.67
2022-11-22T21:29:24.380Z,2.40
2022-11-22T21:32:13.262Z,2.57
2022-11-22T21:35:03.905Z,1.33
2022-11-22T21:37:55.736Z,2.90
2022-11-22T21:40:53.807Z,1.03
2022-11-22T21:43:49.983Z,2.00
2022-11-22T21:46:39.081Z,2.47
2022-11-22T21:49:28.363Z,1.50
2022-11-22T21:52:18.791Z,2.60
2022-11-22T21:55:09.906Z,6.93
2022-11-22T21:57:58.991Z,6.60
2022-11-22T22:00:48.593Z,2.23
2022-11-22T22:03:37.827Z,3.07
2022-11-22T22:06:26.945Z,3.17
2022-11-22T22:09:17.379Z,3.63
2022-11-22T22:12:07.358Z,3.63
2022-11-22T22:14:56.305Z,3.57
2022-11-22T22:17:45.667Z,3.53
2022-11-22T22:20:34.959Z,4.27
2022-11-22T22:23:24.808Z,3.17
2022-11-22T22:26:17.257Z,4.80
2022-11-22T22:29:06.525Z,3.73
2022-11-22T22:31:55.319Z,2.77
2022-11-22T22:34:44.348Z,2.23
2022-11-22T22:37:35.317Z,3.20
2022-11-22T22:40:24.445Z,6.40
2022-11-22T22:43:14.746Z,4.37
2022-11-22T22:46:06.402Z,3.57
2022-11-22T22:48:56.548Z,3.33
2022-11-22T22:51:45.835Z,2.03
2022-11-22T22:54:35.900Z,2.33
2022-11-22T22:57:24.472Z,3.97
2022-11-22T23:00:16.088Z,3.37
2022-11-22T23:03:05.313Z,2.87
2022-11-22T23:05:54.700Z,1.80
2022-11-22T23:08:46.421Z,2.70
2022-11-22T23:11:53.548Z,2.60
2022-11-22T23:14:42.880Z,3.57
2022-11-22T23:17:34.277Z,2.33
2022-11-22T23:20:25.056Z,2.70
2022-11-22T23:23:14.116Z,2.43
2022-11-22T23:26:04.080Z,2.63
2022-11-22T23:28:53.706Z,4.00
2022-11-22T23:31:42.997Z,2.97
2022-11-22T23:34:33.888Z,3.33
2022-11-22T23:37:23.251Z,2.80
2022-11-22T23:40:13.745Z,4.33
2022-11-22T23:43:03.043Z,5.23
2022-11-22T23:45:51.851Z,3.93
2022-11-22T23:48:41.233Z,3.90
2022-11-22T23:51:33.365Z,2.63
2022-11-22T23:54:22.281Z,2.67
2022-11-22T23:57:11.140Z,3.40
